Terminal Aerodrome Forecast
Issued by NWS San Angelo, TX

Home | Current Version | Previous Version | Text Only | Print | Product List | Glossary On
Versions: 1 2 3 4 5 6 7 8 9 10 11 12 13 14
000
FTUS44 KSJT 162135 AAC
TAFSJT
TAF AMD
KSJT 162135Z 1622/1718 18009KT P6SM -RA OVC025
      TEMPO 1622/1623 -RA SCT025 OVC035
     FM170100 18008KT P6SM OVC018
     FM170800 20009KT P6SM SCT250=

USA.gov is the U.S. government's official web portal to all federal, state and local government web resources and services.